Time;durP1;ratioP1;P1;durP2;ratioP2;P2;SDS_P1;SDS_P2;PMS_P1;PMS_P2;Temp;Humidity;BMP_temperature;BMP_pressure;BME280_temperature;BME280_humidity;BME280_pressure;Samples;Min_cycle;Max_cycle;Signal;HPM_P1;HPM_P2
2021/11/25 00:01:58;;;;;;;13.48;8.65;;;2.80;99.90;;;;;;5039314;28;20051;-63
2021/11/25 00:04:24;;;;;;;12.18;8.15;;;2.80;99.90;;;;;;5054425;28;20021;-63
2021/11/25 00:06:50;;;;;;;12.48;7.57;;;2.70;99.90;;;;;;5054326;28;20055;-63
2021/11/25 00:09:16;;;;;;;12.48;7.63;;;2.70;99.90;;;;;;5054308;28;20502;-62
2021/11/25 00:11:41;;;;;;;12.18;7.65;;;2.80;99.90;;;;;;5053839;28;20104;-63
2021/11/25 00:14:07;;;;;;;14.23;9.48;;;3.00;99.90;;;;;;5036596;28;20358;-63
2021/11/25 00:16:35;;;;;;;12.10;8.40;;;2.80;99.90;;;;;;5054033;28;20464;-63
2021/11/25 00:19:03;;;;;;;11.20;7.72;;;2.90;99.90;;;;;;5054136;28;20458;-63
2021/11/25 00:21:34;;;;;;;14.15;8.52;;;2.90;99.90;;;;;;5036923;28;20040;-63
2021/11/25 00:24:00;;;;;;;;;;;2.90;99.90;;;;;;5053567;28;20028;-65
2021/11/25 00:26:32;;;;;;;12.25;8.57;;;2.90;99.90;;;;;;5053734;28;19904;-64
2021/11/25 00:29:01;;;;;;;13.05;8.15;;;3.00;99.90;;;;;;5048791;28;20029;-63
2021/11/25 00:31:27;;;;;;;11.48;7.65;;;3.00;99.90;;;;;;5039589;28;20112;-64
2021/11/25 00:33:52;;;;;;;12.32;8.00;;;3.10;99.90;;;;;;5035793;28;20021;-63
2021/11/25 00:36:18;;;;;;;12.10;8.45;;;3.10;99.90;;;;;;5053586;28;20032;-65
2021/11/25 00:38:47;;;;;;;12.50;8.18;;;3.10;99.90;;;;;;5053603;28;20080;-64
2021/11/25 00:41:15;;;;;;;11.35;7.57;;;3.10;99.90;;;;;;5053260;28;20024;-64
2021/11/25 00:43:41;;;;;;;17.23;9.30;;;3.50;99.90;;;;;;5053363;28;20107;-64
2021/11/25 00:46:06;;;;;;;10.95;7.85;;;3.20;99.90;;;;;;5053168;28;20055;-65
2021/11/25 00:48:32;;;;;;;11.93;8.25;;;3.20;99.90;;;;;;5053434;28;20025;-64
2021/11/25 00:50:59;;;;;;;11.18;7.32;;;3.20;99.90;;;;;;5053110;28;20076;-64
2021/11/25 00:53:24;;;;;;;13.43;8.63;;;3.30;99.90;;;;;;5034912;28;20150;-64
2021/11/25 00:55:50;;;;;;;11.50;8.32;;;3.30;99.90;;;;;;5049717;28;20454;-63
2021/11/25 00:58:17;;;;;;;12.63;8.57;;;3.20;99.90;;;;;;5049381;28;20060;-64
2021/11/25 01:00:43;;;;;;;13.50;8.40;;;3.20;99.90;;;;;;5056203;28;20029;-63
2021/11/25 01:03:09;;;;;;;13.40;7.97;;;3.20;99.90;;;;;;5052903;28;20036;-62
2021/11/25 01:05:35;;;;;;;11.80;7.57;;;3.20;99.90;;;;;;5052734;28;20036;-63
2021/11/25 01:08:00;;;;;;;13.63;9.57;;;3.10;99.90;;;;;;5052910;28;20104;-63
2021/11/25 01:10:26;;;;;;;11.48;7.53;;;3.10;99.90;;;;;;5035171;28;20025;-64
2021/11/25 01:12:54;;;;;;;13.75;9.07;;;3.20;99.90;;;;;;5018820;28;20031;-63
2021/11/25 01:15:29;;;;;;;11.48;8.52;;;3.20;99.90;;;;;;5053047;28;20345;-63
2021/11/25 01:18:09;;;;;;;14.23;8.88;;;3.10;99.90;;;;;;5053018;28;20036;-62
2021/11/25 01:20:36;;;;;;;13.00;9.02;;;3.10;99.90;;;;;;5053119;28;20029;-64
2021/11/25 01:23:05;;;;;;;11.55;8.15;;;3.10;99.90;;;;;;5052881;28;20033;-63
2021/11/25 01:25:35;;;;;;;16.45;8.38;;;3.20;99.90;;;;;;5048795;28;20028;-65
2021/11/25 01:28:03;;;;;;;15.38;8.48;;;3.20;99.90;;;;;;5052933;28;20059;-62
2021/11/25 01:30:29;;;;;;;18.23;8.93;;;3.20;99.90;;;;;;5055963;28;20028;-64
2021/11/25 01:32:55;;;;;;;12.77;8.05;;;3.30;99.90;;;;;;5055701;28;20096;-64
2021/11/25 01:35:21;;;;;;;10.77;7.80;;;3.20;99.90;;;;;;5052818;28;20370;-63
2021/11/25 01:37:48;;;;;;;11.73;8.43;;;3.20;99.90;;;;;;5052990;28;20029;-63
2021/11/25 01:40:15;;;;;;;13.75;8.77;;;3.10;99.90;;;;;;5052765;28;20025;-63
2021/11/25 01:42:41;;;;;;;12.00;8.00;;;3.20;99.90;;;;;;5052960;28;20060;-62
2021/11/25 01:45:08;;;;;;;15.73;8.65;;;3.20;99.90;;;;;;5056872;28;20104;-63
2021/11/25 01:47:35;;;;;;;11.48;7.50;;;3.20;99.90;;;;;;5056383;28;20028;-64
2021/11/25 01:50:01;;;;;;;15.02;8.98;;;3.20;99.90;;;;;;5056692;28;20139;-63
2021/11/25 01:52:26;;;;;;;13.45;8.48;;;3.20;99.90;;;;;;5056320;28;20036;-63
2021/11/25 01:54:52;;;;;;;15.50;8.95;;;3.20;99.90;;;;;;5056200;28;20023;-63
2021/11/25 01:57:17;;;;;;;11.63;8.20;;;3.20;99.90;;;;;;5035524;28;20037;-63
2021/11/25 01:59:43;;;;;;;11.57;7.82;;;3.20;99.90;;;;;;5056187;28;20029;-63
2021/11/25 02:02:10;;;;;;;11.93;7.43;;;3.10;99.90;;;;;;5058720;28;20103;-64
2021/11/25 02:04:39;;;;;;;11.98;7.60;;;3.00;99.90;;;;;;5038337;28;20021;-63
2021/11/25 02:07:05;;;;;;;10.73;7.72;;;2.90;99.90;;;;;;5055911;28;20036;-63
2021/11/25 02:09:31;;;;;;;12.95;8.25;;;2.90;99.90;;;;;;5056216;28;20122;-63
2021/11/25 02:11:57;;;;;;;15.25;9.10;;;2.90;99.90;;;;;;5056037;28;20029;-64
2021/11/25 02:14:23;;;;;;;13.35;7.90;;;2.80;99.90;;;;;;5056098;28;20049;-63
2021/11/25 02:16:50;;;;;;;15.85;9.38;;;2.80;99.90;;;;;;5055753;28;20382;-64
2021/11/25 02:19:16;;;;;;;12.40;8.35;;;2.80;99.90;;;;;;5055676;28;20021;-63
2021/11/25 02:21:42;;;;;;;12.25;8.30;;;2.90;99.90;;;;;;5056121;28;20028;-64
2021/11/25 02:24:11;;;;;;;9.68;7.93;;;2.90;99.90;;;;;;5055664;28;20044;-64
2021/11/25 02:26:39;;;;;;;14.32;8.40;;;3.00;99.90;;;;;;5037729;28;20029;-64
2021/11/25 02:29:05;;;;;;;20.23;9.60;;;3.00;99.90;;;;;;5038177;28;20048;-64
2021/11/25 02:31:30;;;;;;;16.15;8.98;;;3.00;99.90;;;;;;5061882;28;20422;-63
2021/11/25 02:33:58;;;;;;;14.05;9.40;;;3.10;99.90;;;;;;5055793;28;20350;-63
2021/11/25 02:36:24;;;;;;;13.73;8.95;;;3.10;99.90;;;;;;5055751;28;20309;-63
2021/11/25 02:38:50;;;;;;;13.57;8.50;;;3.10;99.90;;;;;;5055659;28;20480;-63
2021/11/25 02:41:16;;;;;;;12.60;9.07;;;3.10;99.90;;;;;;5055508;28;20025;-64
2021/11/25 02:43:42;;;;;;;11.55;8.75;;;3.10;99.90;;;;;;5037675;28;20331;-63
2021/11/25 02:46:15;;;;;;;12.18;8.02;;;3.20;99.90;;;;;;5052231;28;20021;-62
2021/11/25 02:48:45;;;;;;;11.43;8.25;;;3.20;99.90;;;;;;5055464;28;20059;-62
2021/11/25 02:51:13;;;;;;;17.10;9.23;;;3.30;99.90;;;;;;5038150;28;20089;-64
2021/11/25 02:53:42;;;;;;;15.32;9.45;;;3.30;99.90;;;;;;5055642;28;20044;-64
2021/11/25 02:56:14;;;;;;;12.10;8.57;;;3.30;99.90;;;;;;5054443;28;20059;-64
2021/11/25 02:58:46;;;;;;;13.93;8.30;;;3.40;99.90;;;;;;5048690;28;20029;-63
2021/11/25 03:01:23;;;;;;;14.07;8.80;;;3.40;99.90;;;;;;5058575;28;20154;-64
2021/11/25 03:03:51;;;;;;;16.50;9.63;;;3.50;99.90;;;;;;5055341;28;20060;-63
2021/11/25 03:06:22;;;;;;;17.92;8.90;;;3.50;99.90;;;;;;5055051;28;20024;-64
2021/11/25 03:08:50;;;;;;;13.45;10.52;;;3.40;99.90;;;;;;5055178;28;20104;-64
2021/11/25 03:11:19;;;;;;;16.58;10.68;;;3.40;99.90;;;;;;5055264;28;20035;-64
2021/11/25 03:13:47;;;;;;;12.65;9.45;;;3.40;99.90;;;;;;5055263;28;20100;-63
2021/11/25 03:16:14;;;;;;;15.43;10.38;;;3.50;99.90;;;;;;5054943;28;20018;-63
2021/11/25 03:18:43;;;;;;;14.88;9.35;;;3.50;99.90;;;;;;5048321;28;20108;-63
2021/11/25 03:21:12;;;;;;;16.88;8.80;;;3.50;99.90;;;;;;5037582;28;20103;-64
2021/11/25 03:23:38;;;;;;;15.40;9.68;;;3.50;99.90;;;;;;5054925;28;20056;-65
2021/11/25 03:26:07;;;;;;;14.55;9.20;;;3.50;99.90;;;;;;5054880;28;20078;-64
2021/11/25 03:28:45;;;;;;;14.13;9.13;;;3.50;99.90;;;;;;5054872;28;20044;-65
2021/11/25 03:31:19;;;;;;;14.60;9.77;;;3.50;99.90;;;;;;5061261;28;20063;-64
2021/11/25 03:33:45;;;;;;;16.58;10.02;;;3.60;99.90;;;;;;5037391;28;20462;-64
2021/11/25 03:36:14;;;;;;;13.07;9.70;;;3.50;99.90;;;;;;5054655;28;20108;-64
2021/11/25 03:38:40;;;;;;;13.70;9.18;;;3.60;99.90;;;;;;5054712;28;20469;-64
2021/11/25 03:41:11;;;;;;;14.80;9.25;;;3.60;99.90;;;;;;5047943;28;20029;-64
2021/11/25 03:43:37;;;;;;;15.75;10.88;;;3.70;99.90;;;;;;5054554;28;20029;-62
2021/11/25 03:46:02;;;;;;;13.75;7.90;;;3.70;99.90;;;;;;5047659;28;20043;-64
2021/11/25 03:48:29;;;;;;;14.63;9.43;;;3.70;99.90;;;;;;5037203;28;20033;-63
2021/11/25 03:50:59;;;;;;;15.30;10.02;;;3.60;99.90;;;;;;5054382;28;20040;-64
2021/11/25 03:53:28;;;;;;;13.83;8.83;;;3.80;99.90;;;;;;5054436;28;20063;-63
2021/11/25 03:55:56;;;;;;;13.40;9.15;;;3.60;99.90;;;;;;5054052;28;20251;-63
2021/11/25 03:58:21;;;;;;;12.40;9.05;;;3.60;99.90;;;;;;5054054;28;20057;-65
2021/11/25 04:00:49;;;;;;;14.68;9.73;;;3.70;99.90;;;;;;5057209;28;20349;-64
2021/11/25 04:03:15;;;;;;;14.32;8.10;;;3.70;99.90;;;;;;5053964;28;20327;-63
2021/11/25 04:05:43;;;;;;;12.35;8.20;;;3.70;99.90;;;;;;5054029;28;20028;-63
2021/11/25 04:08:08;;;;;;;13.77;8.88;;;3.70;99.90;;;;;;5053735;28;20048;-63
2021/11/25 04:10:34;;;;;;;16.30;9.50;;;3.70;99.90;;;;;;5053946;28;20024;-64
2021/11/25 04:13:00;;;;;;;12.02;8.35;;;3.70;99.90;;;;;;5053811;28;20021;-64
2021/11/25 04:15:28;;;;;;;13.32;9.32;;;3.70;99.90;;;;;;5053527;28;20021;-64
2021/11/25 04:17:54;;;;;;;12.70;8.30;;;3.70;99.90;;;;;;5053478;28;20021;-64
2021/11/25 04:20:19;;;;;;;11.48;7.68;;;3.70;99.90;;;;;;5035684;28;20033;-63
2021/11/25 04:22:45;;;;;;;11.93;8.43;;;3.70;99.90;;;;;;5035806;28;20359;-63
2021/11/25 04:25:11;;;;;;;11.15;8.02;;;3.70;99.90;;;;;;5035572;28;20017;-64
2021/11/25 04:27:37;;;;;;;11.95;9.02;;;3.70;99.90;;;;;;5035980;28;20029;-63
2021/11/25 04:35:32;;;;;;;12.90;9.00;;;3.80;99.90;;;;;;5053463;28;20040;-64
2021/11/25 04:38:00;;;;;;;13.60;8.50;;;3.70;99.90;;;;;;5053306;28;20431;-64
2021/11/25 04:40:26;;;;;;;13.25;8.15;;;3.70;99.90;;;;;;5053417;28;20081;-64
2021/11/25 04:42:52;;;;;;;12.32;8.32;;;3.70;99.90;;;;;;5053284;28;20112;-64
2021/11/25 04:45:18;;;;;;;14.00;8.77;;;3.70;99.90;;;;;;5053470;28;20025;-62
2021/11/25 04:47:44;;;;;;;16.20;9.18;;;3.80;99.90;;;;;;5053391;28;20039;-64
2021/11/25 04:50:10;;;;;;;13.63;8.40;;;3.80;99.90;;;;;;5035844;28;20021;-64
2021/11/25 04:52:35;;;;;;;13.52;8.38;;;3.80;99.90;;;;;;5035634;28;20351;-63
2021/11/25 04:55:03;;;;;;;14.90;8.90;;;3.80;99.90;;;;;;5053712;28;20104;-65
2021/11/25 04:57:29;;;;;;;12.88;9.27;;;3.80;99.90;;;;;;5053453;28;20021;-63
2021/11/25 04:59:54;;;;;;;12.85;9.05;;;3.80;99.90;;;;;;5054249;28;20079;-63
2021/11/25 05:02:20;;;;;;;12.43;9.25;;;3.80;99.90;;;;;;5058899;28;20430;-63
2021/11/25 05:04:45;;;;;;;14.48;8.95;;;3.80;99.90;;;;;;5050199;28;20025;-64
2021/11/25 05:07:13;;;;;;;16.17;9.18;;;3.80;99.90;;;;;;5055311;28;20025;-63
2021/11/25 05:09:39;;;;;;;12.10;8.45;;;3.80;99.90;;;;;;5054378;28;20049;-63
2021/11/25 05:12:05;;;;;;;13.43;9.10;;;3.70;99.90;;;;;;5053947;28;20093;-63
2021/11/25 05:14:31;;;;;;;11.85;9.13;;;3.80;99.90;;;;;;5056483;28;20021;-64
2021/11/25 05:16:56;;;;;;;12.38;9.65;;;3.80;99.90;;;;;;5035460;28;20081;-63
2021/11/25 05:19:22;;;;;;;15.43;10.07;;;3.80;99.90;;;;;;5035251;28;20033;-63
2021/11/25 05:21:50;;;;;;;14.27;9.73;;;3.70;99.90;;;;;;5029050;28;20033;-63
2021/11/25 05:24:18;;;;;;;16.80;9.63;;;3.70;99.90;;;;;;5035286;28;20037;-63
2021/11/25 05:26:44;;;;;;;17.40;9.10;;;3.80;99.90;;;;;;5053049;28;20021;-63
2021/11/25 05:29:10;;;;;;;13.45;9.52;;;3.60;99.90;;;;;;5035301;28;20417;-63
2021/11/25 05:31:35;;;;;;;14.10;10.30;;;3.60;99.90;;;;;;5052822;28;20033;-63
2021/11/25 05:34:01;;;;;;;15.07;9.55;;;3.70;99.90;;;;;;5053198;28;20025;-63
2021/11/25 05:36:26;;;;;;;16.65;9.10;;;3.50;99.90;;;;;;5052957;28;20017;-63
2021/11/25 05:38:52;;;;;;;16.40;10.07;;;3.50;99.90;;;;;;5053047;28;20032;-63
2021/11/25 05:41:18;;;;;;;14.70;10.30;;;3.50;99.90;;;;;;5052887;28;20481;-63
2021/11/25 05:43:46;;;;;;;17.65;11.13;;;3.60;99.90;;;;;;5052776;28;20033;-62
2021/11/25 05:46:14;;;;;;;15.18;9.27;;;3.60;99.90;;;;;;5035085;28;20029;-62
2021/11/25 05:48:39;;;;;;;16.25;10.13;;;3.60;99.90;;;;;;5052440;28;20033;-63
2021/11/25 05:51:05;;;;;;;14.52;10.75;;;3.60;99.90;;;;;;5052275;28;20067;-63
2021/11/25 05:53:33;;;;;;;14.52;9.75;;;3.50;99.90;;;;;;5052754;28;20033;-62
2021/11/25 05:55:59;;;;;;;15.55;10.50;;;3.50;99.90;;;;;;5051296;28;20395;-61
2021/11/25 05:58:24;;;;;;;15.50;9.77;;;3.50;99.90;;;;;;5052497;28;20103;-63
2021/11/25 06:00:50;;;;;;;16.88;10.48;;;3.50;99.90;;;;;;5055830;28;20028;-63
2021/11/25 06:03:15;;;;;;;18.20;11.02;;;3.60;99.90;;;;;;5034768;28;20029;-64
2021/11/25 06:05:45;;;;;;;19.13;11.25;;;3.60;99.90;;;;;;5052525;28;20099;-64
2021/11/25 06:08:11;;;;;;;14.60;10.48;;;3.60;99.90;;;;;;5052411;28;20045;-64
2021/11/25 06:10:39;;;;;;;16.48;10.43;;;3.60;99.90;;;;;;5034762;28;20070;-64
2021/11/25 06:13:04;;;;;;;16.55;10.38;;;3.60;99.90;;;;;;5034631;28;20437;-63
2021/11/25 06:15:32;;;;;;;15.60;10.52;;;3.70;99.90;;;;;;5052532;28;20021;-64
2021/11/25 06:17:58;;;;;;;14.57;11.00;;;3.60;99.90;;;;;;5052335;28;20100;-64
2021/11/25 06:20:24;;;;;;;14.27;9.95;;;3.70;99.90;;;;;;5052332;28;20096;-64
2021/11/25 06:22:54;;;;;;;14.50;10.30;;;3.60;99.90;;;;;;5052197;28;20326;-62
2021/11/25 06:25:22;;;;;;;19.10;10.88;;;3.50;99.90;;;;;;5052249;28;20028;-64
2021/11/25 06:27:51;;;;;;;19.38;13.38;;;3.50;99.90;;;;;;5045525;28;20038;-64
2021/11/25 06:30:16;;;;;;;18.55;12.38;;;3.60;99.90;;;;;;5053462;28;20052;-64
2021/11/25 06:32:46;;;;;;;18.40;12.32;;;3.60;99.90;;;;;;5055703;28;20473;-63
2021/11/25 06:35:15;;;;;;;22.40;13.23;;;3.50;99.90;;;;;;5055985;28;20311;-63
2021/11/25 06:37:52;;;;;;;19.20;13.55;;;3.50;99.90;;;;;;5055843;28;20350;-63
2021/11/25 06:40:25;;;;;;;19.35;12.73;;;3.50;99.90;;;;;;5055914;28;20037;-63
2021/11/25 06:42:53;;;;;;;21.70;12.70;;;3.50;99.90;;;;;;5038011;28;20383;-64
2021/11/25 06:45:19;;;;;;;21.92;13.32;;;3.60;99.90;;;;;;5055691;28;20018;-64
2021/11/25 06:47:47;;;;;;;21.55;13.48;;;3.60;99.90;;;;;;5055485;28;20029;-64
2021/11/25 06:50:12;;;;;;;20.40;12.35;;;3.60;99.90;;;;;;5055726;28;20036;-63
2021/11/25 06:52:38;;;;;;;23.80;15.02;;;3.60;99.90;;;;;;5055735;28;20029;-64
2021/11/25 06:55:05;;;;;;;21.95;14.55;;;3.60;99.90;;;;;;5055632;28;20183;-64
2021/11/25 06:57:34;;;;;;;22.98;13.45;;;3.50;99.90;;;;;;5038202;28;20395;-65
2021/11/25 07:00:03;;;;;;;25.05;14.98;;;3.50;99.90;;;;;;5037778;28;20064;-65
2021/11/25 07:02:29;;;;;;;24.48;15.77;;;3.70;99.90;;;;;;5059130;28;20373;-64
2021/11/25 07:04:54;;;;;;;28.60;17.25;;;3.40;99.90;;;;;;5055383;28;20108;-63
2021/11/25 07:07:20;;;;;;;28.10;16.73;;;3.50;99.90;;;;;;5055323;28;20043;-65
2021/11/25 07:09:45;;;;;;;31.75;18.10;;;3.50;99.90;;;;;;5055107;28;20037;-64
2021/11/25 07:12:12;;;;;;;29.17;16.33;;;3.60;99.90;;;;;;5054879;28;20029;-65
2021/11/25 07:14:40;;;;;;;24.77;16.23;;;3.60;99.90;;;;;;5055164;28;20025;-64
2021/11/25 07:17:08;;;;;;;26.40;16.27;;;3.60;99.90;;;;;;5048551;28;20044;-64
2021/11/25 07:19:34;;;;;;;25.67;16.48;;;3.50;99.90;;;;;;5052351;28;20104;-64
2021/11/25 07:22:02;;;;;;;26.95;15.40;;;3.50;99.90;;;;;;5048515;28;20115;-64
2021/11/25 07:24:30;;;;;;;26.80;16.30;;;3.40;99.90;;;;;;5055140;28;20099;-61
2021/11/25 07:26:55;;;;;;;27.02;16.10;;;3.40;99.90;;;;;;5048322;28;20021;-63
2021/11/25 07:29:23;;;;;;;27.58;16.90;;;3.30;99.90;;;;;;5054918;28;20307;-63
2021/11/25 07:31:51;;;;;;;27.35;16.42;;;3.20;99.90;;;;;;5033237;28;20120;-63
2021/11/25 07:34:17;;;;;;;26.20;16.58;;;3.10;99.90;;;;;;5054949;28;20519;-66
2021/11/25 07:36:45;;;;;;;24.80;15.63;;;3.00;99.90;;;;;;5054833;28;20191;-61
2021/11/25 07:39:11;;;;;;;25.90;15.93;;;2.90;99.90;;;;;;5037058;28;20071;-63
2021/11/25 07:41:38;;;;;;;27.88;16.50;;;2.90;99.90;;;;;;5054534;28;20032;-63
2021/11/25 07:44:10;;;;;;;28.50;16.42;;;2.90;99.90;;;;;;5048376;28;20079;-62
2021/11/25 07:46:36;;;;;;;30.30;17.15;;;3.00;99.90;;;;;;5036472;28;20304;-63
2021/11/25 07:49:04;;;;;;;26.88;16.77;;;2.90;99.90;;;;;;5037143;28;20037;-62
2021/11/25 07:51:33;;;;;;;30.60;17.85;;;2.80;99.90;;;;;;5054436;28;20104;-64
2021/11/25 07:54:00;;;;;;;32.25;18.83;;;2.80;99.90;;;;;;5054557;28;20474;-65
2021/11/25 07:56:26;;;;;;;30.05;19.02;;;2.80;99.90;;;;;;5050085;28;20025;-63
2021/11/25 07:58:52;;;;;;;30.63;17.65;;;2.80;99.90;;;;;;5054694;28;20422;-64
2021/11/25 08:01:17;;;;;;;31.92;17.88;;;2.90;99.90;;;;;;5040159;28;20119;-64
2021/11/25 08:03:43;;;;;;;28.27;17.67;;;2.90;99.90;;;;;;5036799;28;20029;-64
2021/11/25 08:06:09;;;;;;;32.03;20.38;;;2.90;99.90;;;;;;5054209;28;20508;-64
2021/11/25 08:08:34;;;;;;;27.48;17.88;;;3.00;99.90;;;;;;5053317;28;20442;-64
2021/11/25 08:11:03;;;;;;;27.65;17.77;;;3.00;99.90;;;;;;5053396;28;20468;-63
2021/11/25 08:13:31;;;;;;;30.40;18.67;;;3.10;99.90;;;;;;5054276;28;20027;-64
2021/11/25 08:15:57;;;;;;;32.80;19.23;;;3.10;99.90;;;;;;5051228;28;20481;-62
2021/11/25 08:18:22;;;;;;;27.92;17.58;;;3.20;99.90;;;;;;5053589;28;20040;-63
2021/11/25 08:20:48;;;;;;;28.35;17.30;;;3.10;99.90;;;;;;5037712;28;20082;-63
2021/11/25 08:23:16;;;;;;;29.70;17.90;;;3.20;99.90;;;;;;5035323;28;20029;-63
2021/11/25 08:25:45;;;;;;;28.80;17.23;;;3.20;99.90;;;;;;5035275;28;20029;-70
2021/11/25 08:28:11;;;;;;;31.38;18.60;;;3.30;99.90;;;;;;5035446;28;20089;-61
2021/11/25 08:30:42;;;;;;;29.85;18.05;;;3.40;99.90;;;;;;5059871;28;20633;-62
2021/11/25 08:33:07;;;;;;;32.10;18.42;;;3.40;99.90;;;;;;5035082;28;20120;-64
2021/11/25 08:35:33;;;;;;;33.70;19.60;;;3.50;99.90;;;;;;5049244;28;20096;-60
2021/11/25 08:38:02;;;;;;;29.17;18.00;;;3.60;99.90;;;;;;5053609;28;20021;-63
2021/11/25 08:40:28;;;;;;;30.00;19.00;;;3.60;99.90;;;;;;5030882;28;20033;-63
2021/11/25 08:42:55;;;;;;;32.25;18.70;;;3.60;99.90;;;;;;5052357;28;20036;-61
2021/11/25 08:45:21;;;;;;;32.65;18.63;;;3.80;99.90;;;;;;5052609;28;20051;-65
2021/11/25 08:47:47;;;;;;;34.60;18.92;;;3.90;99.90;;;;;;5053349;28;20021;-63
2021/11/25 08:50:18;;;;;;;34.05;17.88;;;4.00;99.90;;;;;;5034912;28;20021;-58
2021/11/25 08:52:44;;;;;;;36.67;19.25;;;3.90;99.90;;;;;;5032699;28;20438;-63
2021/11/25 08:55:12;;;;;;;32.85;18.95;;;3.90;99.90;;;;;;5032881;28;20044;-63
2021/11/25 08:57:39;;;;;;;31.70;19.52;;;4.00;99.90;;;;;;5053166;28;20021;-62
2021/11/25 09:00:07;;;;;;;31.10;18.55;;;3.90;99.90;;;;;;5051130;28;20025;-60
2021/11/25 09:02:33;;;;;;;29.42;17.70;;;3.90;99.90;;;;;;5052385;28;20058;-62
2021/11/25 09:04:59;;;;;;;35.33;19.98;;;4.00;99.90;;;;;;5065799;28;20029;-63
2021/11/25 09:07:25;;;;;;;39.58;22.63;;;4.00;99.90;;;;;;5059612;28;20040;-62
2021/11/25 09:09:51;;;;;;;31.98;20.77;;;4.00;99.90;;;;;;5053456;28;20105;-62
2021/11/25 09:12:16;;;;;;;32.42;19.77;;;4.10;99.90;;;;;;5053032;28;20029;-62
2021/11/25 09:14:43;;;;;;;32.10;20.98;;;4.30;99.90;;;;;;5058002;28;20075;-63
2021/11/25 09:17:12;;;;;;;36.55;20.75;;;4.30;99.90;;;;;;5053310;28;20044;-62
2021/11/25 09:19:40;;;;;;;35.03;19.45;;;4.40;99.90;;;;;;5046797;28;20021;-62
2021/11/25 09:22:05;;;;;;;29.30;19.35;;;4.50;99.90;;;;;;5048452;28;20043;-59
2021/11/25 09:24:31;;;;;;;34.03;19.73;;;4.40;99.90;;;;;;5052978;28;20111;-62
2021/11/25 09:26:57;;;;;;;32.22;19.00;;;4.30;99.90;;;;;;5054879;28;20096;-61
2021/11/25 09:29:25;;;;;;;32.33;20.20;;;4.40;99.90;;;;;;5053539;28;20575;-62
2021/11/25 09:31:51;;;;;;;35.30;18.83;;;4.40;99.90;;;;;;5059389;28;20025;-61
2021/11/25 09:34:16;;;;;;;33.13;20.30;;;4.50;99.90;;;;;;5053739;28;20083;-63
2021/11/25 09:36:42;;;;;;;35.70;20.35;;;4.60;99.90;;;;;;5059259;28;20424;-63
2021/11/25 09:39:09;;;;;;;34.15;19.02;;;4.60;99.90;;;;;;5053450;28;20053;-64
2021/11/25 09:41:37;;;;;;;33.42;20.85;;;4.60;99.90;;;;;;5035551;28;20053;-62
2021/11/25 09:44:04;;;;;;;34.65;20.55;;;4.60;99.90;;;;;;5059508;28;20029;-62
2021/11/25 09:46:35;;;;;;;27.83;19.25;;;4.60;99.90;;;;;;5053383;28;20385;-65
2021/11/25 09:49:05;;;;;;;37.45;20.73;;;4.70;99.90;;;;;;5038867;28;20025;-61
2021/11/25 09:51:33;;;;;;;33.15;20.92;;;4.90;99.90;;;;;;5052762;28;20469;-62
2021/11/25 09:54:02;;;;;;;32.75;18.67;;;4.80;99.90;;;;;;5052486;28;20052;-63
2021/11/25 09:56:27;;;;;;;32.00;19.73;;;4.70;99.90;;;;;;5053115;28;20036;-63
2021/11/25 09:58:53;;;;;;;33.00;19.05;;;4.90;99.90;;;;;;5057473;28;20025;-62
2021/11/25 10:01:22;;;;;;;30.67;18.13;;;5.00;99.90;;;;;;5055676;28;20029;-58
2021/11/25 10:03:50;;;;;;;27.17;17.58;;;5.00;99.90;;;;;;5054724;28;20174;-64
2021/11/25 10:06:21;;;;;;;26.30;17.17;;;4.90;99.90;;;;;;5061544;28;20028;-64
2021/11/25 10:08:52;;;;;;;31.58;19.80;;;4.90;99.90;;;;;;5061312;28;20345;-61
2021/11/25 10:11:31;;;;;;;30.23;19.35;;;5.00;99.90;;;;;;5050429;28;20025;-62
2021/11/25 10:13:58;;;;;;;31.73;19.70;;;5.40;99.90;;;;;;5053320;28;20043;-63
2021/11/25 10:16:28;;;;;;;30.10;18.20;;;5.40;99.90;;;;;;5061626;28;20025;-64
2021/11/25 10:18:55;;;;;;;31.73;18.35;;;5.80;99.90;;;;;;5060194;28;20319;-63
2021/11/25 10:21:26;;;;;;;27.52;18.05;;;5.90;99.90;;;;;;5056823;28;20033;-62
2021/11/25 10:23:53;;;;;;;29.40;16.77;;;5.80;99.90;;;;;;5056812;28;20048;-63
2021/11/25 10:26:20;;;;;;;29.83;18.17;;;5.60;99.90;;;;;;5060191;28;20522;-65
2021/11/25 10:28:53;;;;;;;30.95;18.17;;;5.60;99.90;;;;;;5056827;28;20021;-63
2021/11/25 10:31:31;;;;;;;28.42;18.52;;;5.50;99.90;;;;;;5062902;28;20029;-63
2021/11/25 10:34:16;;;;;;;30.77;18.45;;;5.50;99.90;;;;;;5055209;28;20048;-62
2021/11/25 10:41:59;;;;;;;42.17;22.38;;;5.80;99.90;;;;;;5057947;28;20035;-61
2021/11/25 10:44:32;;;;;;;38.33;22.02;;;5.90;99.90;;;;;;5056215;28;20037;-61
2021/11/25 10:47:16;;;;;;;34.45;21.00;;;6.00;99.90;;;;;;5061556;28;20057;-63
2021/11/25 10:49:49;;;;;;;32.20;18.88;;;5.90;99.90;;;;;;5056195;28;20021;-64
2021/11/25 10:52:31;;;;;;;32.45;20.77;;;5.80;99.90;;;;;;5058406;28;20025;-62
2021/11/25 10:55:00;;;;;;;33.95;20.83;;;5.80;99.90;;;;;;5037969;28;20417;-63
2021/11/25 10:57:43;;;;;;;31.65;20.02;;;5.60;99.90;;;;;;5055939;28;20029;-64
2021/11/25 11:00:34;;;;;;;33.58;20.35;;;5.50;99.90;;;;;;5043652;28;20029;-65
2021/11/25 11:03:04;;;;;;;30.70;19.45;;;5.70;99.90;;;;;;5031644;28;20076;-62
2021/11/25 11:05:30;;;;;;;29.52;19.83;;;5.90;99.90;;;;;;5038153;28;20083;-66
2021/11/25 11:08:05;;;;;;;31.90;20.75;;;6.10;99.90;;;;;;5056797;28;20028;-63
2021/11/25 11:10:32;;;;;;;30.23;19.33;;;6.10;99.90;;;;;;5059962;28;20120;-63
2021/11/25 11:13:15;;;;;;;33.60;20.40;;;6.00;99.90;;;;;;5061804;28;20452;-63
2021/11/25 11:15:55;;;;;;;31.90;19.15;;;6.10;99.90;;;;;;5049918;28;20371;-64
2021/11/25 11:21:33;;;;;;;32.22;19.67;;;6.10;99.90;;;;;;5054984;28;20041;-64
2021/11/25 11:24:03;;;;;;;32.80;19.92;;;6.10;99.90;;;;;;5061426;28;20108;-62
2021/11/25 11:26:28;;;;;;;32.50;19.25;;;6.10;99.90;;;;;;5055386;28;20405;-63
2021/11/25 11:28:54;;;;;;;31.55;18.80;;;6.10;99.90;;;;;;5058832;28;20033;-64
2021/11/25 11:31:20;;;;;;;33.78;20.02;;;5.90;99.90;;;;;;5055539;28;20024;-64
2021/11/25 11:33:50;;;;;;;33.50;20.60;;;6.10;99.90;;;;;;5054858;28;20025;-61
2021/11/25 11:36:16;;;;;;;31.75;19.75;;;6.10;99.90;;;;;;5055324;28;20353;-61
2021/11/25 11:38:44;;;;;;;32.63;19.35;;;6.10;99.90;;;;;;5036826;28;20096;-63
2021/11/25 11:41:10;;;;;;;30.60;19.80;;;6.10;99.90;;;;;;5059073;28;20511;-62
2021/11/25 11:43:38;;;;;;;36.38;21.50;;;6.20;99.90;;;;;;5057551;28;20119;-59
2021/11/25 11:46:04;;;;;;;30.95;19.65;;;6.30;99.90;;;;;;5055113;28;20159;-63
2021/11/25 11:48:30;;;;;;;35.53;20.67;;;6.40;99.90;;;;;;5056123;28;20116;-62
2021/11/25 11:50:57;;;;;;;31.20;19.98;;;6.30;99.90;;;;;;5063116;28;20032;-65
2021/11/25 11:53:25;;;;;;;32.58;19.55;;;6.30;99.90;;;;;;5054049;28;20335;-63
2021/11/25 11:56:05;;;;;;;33.05;20.67;;;6.30;99.90;;;;;;5054412;28;20028;-63
2021/11/25 11:58:41;;;;;;;33.13;20.23;;;6.20;99.90;;;;;;5054803;28;20017;-61
2021/11/25 12:01:06;;;;;;;32.42;19.80;;;6.10;99.90;;;;;;5056837;28;20035;-62
2021/11/25 12:03:48;;;;;;;31.73;20.23;;;6.10;99.90;;;;;;5060931;28;20028;-64
2021/11/25 12:06:32;;;;;;;36.92;21.15;;;6.20;99.90;;;;;;5057276;28;20101;-63
2021/11/25 12:08:59;;;;;;;30.95;20.08;;;6.10;99.90;;;;;;5054588;28;20104;-62
2021/11/25 12:11:37;;;;;;;37.20;22.33;;;6.10;99.90;;;;;;5036798;28;20025;-63
2021/11/25 12:14:06;;;;;;;32.00;19.90;;;6.30;99.90;;;;;;5057392;28;20083;-62
2021/11/25 12:16:38;;;;;;;34.05;20.92;;;6.40;99.90;;;;;;5054408;28;20032;-62
2021/11/25 12:19:09;;;;;;;32.40;21.17;;;6.40;99.90;;;;;;5037015;28;20033;-62
2021/11/25 12:21:46;;;;;;;35.22;22.13;;;6.60;99.90;;;;;;5055344;28;20035;-63
2021/11/25 12:24:28;;;;;;;37.63;23.08;;;6.60;99.90;;;;;;5051393;28;20052;-67
2021/11/25 12:27:00;;;;;;;34.35;19.65;;;6.70;99.90;;;;;;5053798;28;20025;-60
2021/11/25 12:29:36;;;;;;;32.38;20.02;;;6.70;99.90;;;;;;5036264;28;20029;-65
2021/11/25 12:32:29;;;;;;;32.03;20.27;;;6.90;99.90;;;;;;5059461;28;20078;-64
2021/11/25 12:35:04;;;;;;;34.15;20.85;;;7.30;99.90;;;;;;5053773;28;20469;-62
2021/11/25 12:37:41;;;;;;;30.25;19.08;;;7.70;99.90;;;;;;5059931;28;20051;-61
2021/11/25 12:40:27;;;;;;;32.40;19.20;;;8.00;99.90;;;;;;5036566;28;20144;-63
2021/11/25 12:43:26;;;;;;;31.77;19.88;;;8.40;99.90;;;;;;5053070;28;20037;-62
2021/11/25 12:46:05;;;;;;;29.13;18.83;;;8.90;99.90;;;;;;4999817;28;20545;-59
2021/11/25 12:48:44;;;;;;;30.88;18.10;;;9.00;99.90;;;;;;5052479;28;20461;-64
2021/11/25 12:51:18;;;;;;;29.20;17.83;;;8.90;99.90;;;;;;5054033;28;20371;-62
2021/11/25 12:53:46;;;;;;;28.55;18.90;;;9.20;99.90;;;;;;5056141;28;20059;-64
2021/11/25 12:56:28;;;;;;;28.98;19.40;;;9.00;99.90;;;;;;5052068;28;20028;-64
2021/11/25 12:59:08;;;;;;;29.98;18.55;;;9.00;99.90;;;;;;5051287;28;20025;-62
2021/11/25 13:01:38;;;;;;;29.50;19.00;;;8.70;99.90;;;;;;5055945;28;20103;-62